sensor_id;sensor_type;location;lat;lon;timestamp;pressure;altitude;pressure_sealevel;temperature;humidity
39223;BME280;24936;46.328;11.026;2023-04-25T00:01:21;93625.53;;;3.34;71.25
39223;BME280;24936;46.328;11.026;2023-04-25T00:03:47;93626.88;;;3.04;71.22
39223;BME280;24936;46.328;11.026;2023-04-25T00:06:13;93620.31;;;3.23;70.57
39223;BME280;24936;46.328;11.026;2023-04-25T00:08:39;93625.91;;;2.94;74.27
39223;BME280;24936;46.328;11.026;2023-04-25T00:11:05;93624.47;;;2.90;76.09
39223;BME280;24936;46.328;11.026;2023-04-25T00:13:30;93622.19;;;2.74;75.12
39223;BME280;24936;46.328;11.026;2023-04-25T00:15:56;93626.00;;;2.93;73.65
39223;BME280;24936;46.328;11.026;2023-04-25T00:18:22;93613.88;;;3.04;73.24
39223;BME280;24936;46.328;11.026;2023-04-25T00:20:47;93621.47;;;3.08;71.97
39223;BME280;24936;46.328;11.026;2023-04-25T00:23:14;93623.75;;;2.88;74.40
39223;BME280;24936;46.328;11.026;2023-04-25T00:25:47;93631.47;;;2.54;76.95
39223;BME280;24936;46.328;11.026;2023-04-25T00:28:13;93633.63;;;2.36;78.52
39223;BME280;24936;46.328;11.026;2023-04-25T00:30:39;93628.72;;;2.80;75.63
39223;BME280;24936;46.328;11.026;2023-04-25T00:33:06;93632.13;;;2.80;74.71
39223;BME280;24936;46.328;11.026;2023-04-25T00:35:32;93631.09;;;2.83;73.39
39223;BME280;24936;46.328;11.026;2023-04-25T00:37:58;93625.66;;;2.50;77.08
39223;BME280;24936;46.328;11.026;2023-04-25T00:40:23;93617.69;;;2.65;74.63
39223;BME280;24936;46.328;11.026;2023-04-25T00:42:51;93631.16;;;2.45;74.30
39223;BME280;24936;46.328;11.026;2023-04-25T00:45:17;93626.16;;;2.91;71.62
39223;BME280;24936;46.328;11.026;2023-04-25T00:47:45;93626.41;;;2.64;74.60
39223;BME280;24936;46.328;11.026;2023-04-25T00:50:11;93628.34;;;2.24;78.28
39223;BME280;24936;46.328;11.026;2023-04-25T00:52:43;93622.22;;;2.01;79.58
39223;BME280;24936;46.328;11.026;2023-04-25T00:55:10;93626.06;;;1.95;80.54
39223;BME280;24936;46.328;11.026;2023-04-25T00:57:36;93630.69;;;2.03;77.76
39223;BME280;24936;46.328;11.026;2023-04-25T01:00:04;93626.53;;;2.13;77.16
39223;BME280;24936;46.328;11.026;2023-04-25T01:02:32;93625.31;;;2.06;77.41
39223;BME280;24936;46.328;11.026;2023-04-25T01:04:57;93625.31;;;2.06;78.13
39223;BME280;24936;46.328;11.026;2023-04-25T01:07:23;93634.41;;;2.12;78.08
39223;BME280;24936;46.328;11.026;2023-04-25T01:09:51;93626.88;;;2.09;77.16
39223;BME280;24936;46.328;11.026;2023-04-25T01:12:16;93618.78;;;2.01;76.90
39223;BME280;24936;46.328;11.026;2023-04-25T01:14:42;93629.59;;;1.94;77.11
39223;BME280;24936;46.328;11.026;2023-04-25T01:17:08;93625.22;;;1.95;78.31
39223;BME280;24936;46.328;11.026;2023-04-25T01:19:34;93620.50;;;2.13;76.72
39223;BME280;24936;46.328;11.026;2023-04-25T01:22:00;93613.97;;;2.07;76.23
39223;BME280;24936;46.328;11.026;2023-04-25T01:24:27;93617.03;;;2.01;77.75
39223;BME280;24936;46.328;11.026;2023-04-25T01:26:53;93618.34;;;2.07;76.34
39223;BME280;24936;46.328;11.026;2023-04-25T01:29:22;93617.25;;;1.85;79.56
39223;BME280;24936;46.328;11.026;2023-04-25T01:31:48;93620.78;;;1.84;78.92
39223;BME280;24936;46.328;11.026;2023-04-25T01:34:14;93615.75;;;1.70;79.78
39223;BME280;24936;46.328;11.026;2023-04-25T01:36:40;93623.31;;;1.73;80.90
39223;BME280;24936;46.328;11.026;2023-04-25T01:39:06;93618.25;;;2.08;76.80
39223;BME280;24936;46.328;11.026;2023-04-25T01:41:32;93612.41;;;1.67;79.69
39223;BME280;24936;46.328;11.026;2023-04-25T01:44:00;93615.38;;;1.50;81.84
39223;BME280;24936;46.328;11.026;2023-04-25T01:46:25;93618.97;;;1.47;81.29
39223;BME280;24936;46.328;11.026;2023-04-25T01:48:51;93614.31;;;1.52;79.74
39223;BME280;24936;46.328;11.026;2023-04-25T01:51:17;93620.97;;;1.57;78.91
39223;BME280;24936;46.328;11.026;2023-04-25T01:53:43;93616.13;;;1.76;78.43
39223;BME280;24936;46.328;11.026;2023-04-25T01:56:08;93619.59;;;1.64;79.44
39223;BME280;24936;46.328;11.026;2023-04-25T01:58:35;93624.09;;;1.49;79.78
39223;BME280;24936;46.328;11.026;2023-04-25T02:01:00;93618.28;;;1.45;80.50
39223;BME280;24936;46.328;11.026;2023-04-25T02:03:26;93620.34;;;1.40;80.58
39223;BME280;24936;46.328;11.026;2023-04-25T02:05:51;93616.78;;;1.67;78.64
39223;BME280;24936;46.328;11.026;2023-04-25T02:08:17;93618.50;;;2.17;75.86
39223;BME280;24936;46.328;11.026;2023-04-25T02:10:43;93620.09;;;2.43;74.19
39223;BME280;24936;46.328;11.026;2023-04-25T02:13:09;93614.53;;;2.24;76.07
39223;BME280;24936;46.328;11.026;2023-04-25T02:15:34;93621.97;;;2.04;77.40
39223;BME280;24936;46.328;11.026;2023-04-25T02:18:00;93619.66;;;1.75;78.29
39223;BME280;24936;46.328;11.026;2023-04-25T02:20:28;93619.03;;;1.85;77.28
39223;BME280;24936;46.328;11.026;2023-04-25T02:22:55;93618.72;;;1.89;77.23
39223;BME280;24936;46.328;11.026;2023-04-25T02:25:21;93610.63;;;2.18;75.86
39223;BME280;24936;46.328;11.026;2023-04-25T02:27:47;93613.38;;;2.04;76.60
39223;BME280;24936;46.328;11.026;2023-04-25T02:30:13;93619.53;;;1.90;77.64
39223;BME280;24936;46.328;11.026;2023-04-25T02:32:39;93614.31;;;2.03;76.65
39223;BME280;24936;46.328;11.026;2023-04-25T02:35:05;93607.78;;;1.97;76.99
39223;BME280;24936;46.328;11.026;2023-04-25T02:37:33;93610.63;;;2.18;75.42
39223;BME280;24936;46.328;11.026;2023-04-25T02:39:59;93607.97;;;2.31;74.76
39223;BME280;24936;46.328;11.026;2023-04-25T02:42:25;93605.69;;;2.51;76.20
39223;BME280;24936;46.328;11.026;2023-04-25T02:44:51;93597.72;;;2.65;73.01
39223;BME280;24936;46.328;11.026;2023-04-25T02:47:16;93599.06;;;2.82;72.26
39223;BME280;24936;46.328;11.026;2023-04-25T02:53:04;93595.88;;;2.79;77.47
39223;BME280;24936;46.328;11.026;2023-04-25T02:55:29;93594.22;;;2.78;77.57
39223;BME280;24936;46.328;11.026;2023-04-25T02:57:54;93601.44;;;2.85;77.56
39223;BME280;24936;46.328;11.026;2023-04-25T03:00:23;93605.47;;;2.89;76.32
39223;BME280;24936;46.328;11.026;2023-04-25T03:02:48;93607.59;;;2.96;78.11
39223;BME280;24936;46.328;11.026;2023-04-25T03:05:14;93597.31;;;2.94;77.53
39223;BME280;24936;46.328;11.026;2023-04-25T03:07:39;93598.06;;;3.08;74.19
39223;BME280;24936;46.328;11.026;2023-04-25T03:10:08;93599.00;;;3.18;73.65
39223;BME280;24936;46.328;11.026;2023-04-25T03:12:34;93592.88;;;3.30;72.61
39223;BME280;24936;46.328;11.026;2023-04-25T03:14:59;93582.72;;;3.27;71.99
39223;BME280;24936;46.328;11.026;2023-04-25T03:17:25;93584.72;;;3.35;71.25
39223;BME280;24936;46.328;11.026;2023-04-25T03:19:50;93577.03;;;3.45;69.85
39223;BME280;24936;46.328;11.026;2023-04-25T03:22:16;93578.47;;;3.49;70.90
39223;BME280;24936;46.328;11.026;2023-04-25T03:24:41;93569.47;;;3.42;70.78
39223;BME280;24936;46.328;11.026;2023-04-25T03:27:07;93566.41;;;3.36;71.61
39223;BME280;24936;46.328;11.026;2023-04-25T03:29:32;93570.31;;;3.31;72.38
39223;BME280;24936;46.328;11.026;2023-04-25T03:31:58;93567.94;;;3.28;72.82
39223;BME280;24936;46.328;11.026;2023-04-25T03:34:23;93570.63;;;3.15;71.82
39223;BME280;24936;46.328;11.026;2023-04-25T03:36:49;93564.47;;;2.82;74.46
39223;BME280;24936;46.328;11.026;2023-04-25T03:39:15;93565.56;;;2.55;75.73
39223;BME280;24936;46.328;11.026;2023-04-25T03:41:41;93571.53;;;2.44;76.28
39223;BME280;24936;46.328;11.026;2023-04-25T03:44:06;93564.56;;;2.44;75.26
39223;BME280;24936;46.328;11.026;2023-04-25T03:46:31;93557.69;;;2.68;75.22
39223;BME280;24936;46.328;11.026;2023-04-25T03:48:57;93546.28;;;2.93;73.25
39223;BME280;24936;46.328;11.026;2023-04-25T03:51:22;93533.28;;;2.93;72.59
39223;BME280;24936;46.328;11.026;2023-04-25T03:53:48;93525.13;;;2.86;72.70
39223;BME280;24936;46.328;11.026;2023-04-25T03:56:13;93538.34;;;2.83;72.95
39223;BME280;24936;46.328;11.026;2023-04-25T03:58:39;93544.59;;;2.69;73.85
39223;BME280;24936;46.328;11.026;2023-04-25T04:01:04;93558.41;;;2.34;76.09
39223;BME280;24936;46.328;11.026;2023-04-25T04:03:35;93561.25;;;2.07;79.83
39223;BME280;24936;46.328;11.026;2023-04-25T04:06:03;93564.69;;;1.70;80.65
39223;BME280;24936;46.328;11.026;2023-04-25T04:08:29;93565.03;;;1.52;82.33
39223;BME280;24936;46.328;11.026;2023-04-25T04:10:56;93564.75;;;1.31;83.83
39223;BME280;24936;46.328;11.026;2023-04-25T04:13:21;93569.66;;;1.23;84.06
39223;BME280;24936;46.328;11.026;2023-04-25T04:15:47;93573.09;;;1.11;84.91
39223;BME280;24936;46.328;11.026;2023-04-25T04:18:12;93573.38;;;1.06;85.90
39223;BME280;24936;46.328;11.026;2023-04-25T04:20:38;93569.09;;;1.44;83.05
39223;BME280;24936;46.328;11.026;2023-04-25T04:23:03;93585.47;;;1.57;81.29
39223;BME280;24936;46.328;11.026;2023-04-25T04:25:28;93573.81;;;1.63;80.33
39223;BME280;24936;46.328;11.026;2023-04-25T04:27:55;93574.00;;;1.73;81.97
39223;BME280;24936;46.328;11.026;2023-04-25T04:30:24;93567.50;;;1.67;83.74
39223;BME280;24936;46.328;11.026;2023-04-25T04:32:51;93566.56;;;1.68;83.46
39223;BME280;24936;46.328;11.026;2023-04-25T04:35:16;93569.88;;;1.70;83.01
39223;BME280;24936;46.328;11.026;2023-04-25T04:37:42;93579.25;;;1.97;81.43
39223;BME280;24936;46.328;11.026;2023-04-25T04:40:09;93581.94;;;2.20;79.41
39223;BME280;24936;46.328;11.026;2023-04-25T04:42:34;93579.91;;;2.36;79.35
39223;BME280;24936;46.328;11.026;2023-04-25T04:45:01;93579.31;;;2.68;77.56
39223;BME280;24936;46.328;11.026;2023-04-25T04:47:27;93578.97;;;2.84;78.34
39223;BME280;24936;46.328;11.026;2023-04-25T04:49:56;93577.25;;;2.96;78.33
39223;BME280;24936;46.328;11.026;2023-04-25T04:52:22;93585.41;;;3.03;77.79
39223;BME280;24936;46.328;11.026;2023-04-25T04:54:47;93588.72;;;3.05;75.61
39223;BME280;24936;46.328;11.026;2023-04-25T04:57:13;93592.38;;;3.14;77.60
39223;BME280;24936;46.328;11.026;2023-04-25T04:59:38;93593.09;;;3.04;77.88
39223;BME280;24936;46.328;11.026;2023-04-25T05:02:04;93593.56;;;2.98;80.05
39223;BME280;24936;46.328;11.026;2023-04-25T05:04:29;93596.00;;;2.88;81.39
39223;BME280;24936;46.328;11.026;2023-04-25T05:06:55;93592.91;;;2.83;78.63
39223;BME280;24936;46.328;11.026;2023-04-25T05:09:20;93595.66;;;2.93;76.66
39223;BME280;24936;46.328;11.026;2023-04-25T05:11:51;93595.59;;;3.06;76.90
39223;BME280;24936;46.328;11.026;2023-04-25T05:14:16;93592.63;;;2.99;75.33
39223;BME280;24936;46.328;11.026;2023-04-25T05:16:42;93595.47;;;3.08;76.26
39223;BME280;24936;46.328;11.026;2023-04-25T05:19:08;93596.78;;;3.25;75.83
39223;BME280;24936;46.328;11.026;2023-04-25T05:21:34;93605.88;;;3.42;75.21
39223;BME280;24936;46.328;11.026;2023-04-25T05:24:00;93614.03;;;3.48;75.77
39223;BME280;24936;46.328;11.026;2023-04-25T05:26:26;93610.16;;;3.65;74.98
39223;BME280;24936;46.328;11.026;2023-04-25T05:28:58;93597.59;;;3.71;75.49
39223;BME280;24936;46.328;11.026;2023-04-25T05:31:25;93596.91;;;3.69;74.61
39223;BME280;24936;46.328;11.026;2023-04-25T05:33:51;93597.50;;;3.83;74.64
39223;BME280;24936;46.328;11.026;2023-04-25T05:36:18;93616.50;;;4.18;72.63
39223;BME280;24936;46.328;11.026;2023-04-25T05:38:44;93605.59;;;4.24;73.34
39223;BME280;24936;46.328;11.026;2023-04-25T05:41:09;93601.56;;;4.20;75.44
39223;BME280;24936;46.328;11.026;2023-04-25T05:43:35;93598.75;;;4.01;74.18
39223;BME280;24936;46.328;11.026;2023-04-25T05:46:00;93599.69;;;4.11;74.63
39223;BME280;24936;46.328;11.026;2023-04-25T05:48:26;93588.75;;;4.28;72.75
39223;BME280;24936;46.328;11.026;2023-04-25T05:50:51;93584.72;;;4.36;70.65
39223;BME280;24936;46.328;11.026;2023-04-25T05:53:18;93577.31;;;4.52;72.00
39223;BME280;24936;46.328;11.026;2023-04-25T05:55:43;93572.78;;;4.54;72.13
39223;BME280;24936;46.328;11.026;2023-04-25T05:58:09;93571.25;;;4.52;72.47
39223;BME280;24936;46.328;11.026;2023-04-25T06:00:35;93564.78;;;4.46;70.46
39223;BME280;24936;46.328;11.026;2023-04-25T06:03:00;93561.69;;;4.52;70.16
39223;BME280;24936;46.328;11.026;2023-04-25T06:05:26;93558.41;;;4.60;70.17
39223;BME280;24936;46.328;11.026;2023-04-25T06:07:52;93559.50;;;4.57;68.74
39223;BME280;24936;46.328;11.026;2023-04-25T06:10:17;93556.56;;;4.51;69.63
39223;BME280;24936;46.328;11.026;2023-04-25T06:12:43;93562.22;;;4.35;71.06
39223;BME280;24936;46.328;11.026;2023-04-25T06:15:09;93560.13;;;4.17;72.37
39223;BME280;24936;46.328;11.026;2023-04-25T06:17:35;93563.94;;;4.13;72.24
39223;BME280;24936;46.328;11.026;2023-04-25T06:20:01;93559.31;;;4.17;71.93
39223;BME280;24936;46.328;11.026;2023-04-25T06:22:27;93555.41;;;4.11;73.38
39223;BME280;24936;46.328;11.026;2023-04-25T06:24:52;93549.00;;;4.15;72.62
39223;BME280;24936;46.328;11.026;2023-04-25T06:27:18;93544.88;;;4.12;72.40
39223;BME280;24936;46.328;11.026;2023-04-25T06:29:43;93546.59;;;4.35;70.05
39223;BME280;24936;46.328;11.026;2023-04-25T06:32:09;93548.47;;;4.33;67.48
39223;BME280;24936;46.328;11.026;2023-04-25T06:34:34;93542.78;;;4.60;66.37
39223;BME280;24936;46.328;11.026;2023-04-25T06:37:00;93538.22;;;4.52;68.42
39223;BME280;24936;46.328;11.026;2023-04-25T06:39:25;93531.47;;;4.71;65.23
39223;BME280;24936;46.328;11.026;2023-04-25T06:41:51;93534.00;;;4.82;64.26
39223;BME280;24936;46.328;11.026;2023-04-25T06:44:16;93530.72;;;5.01;63.20
39223;BME280;24936;46.328;11.026;2023-04-25T06:46:42;93534.72;;;4.84;64.06
39223;BME280;24936;46.328;11.026;2023-04-25T06:49:07;93533.50;;;4.88;63.64
39223;BME280;24936;46.328;11.026;2023-04-25T06:51:33;93517.72;;;5.11;62.43
39223;BME280;24936;46.328;11.026;2023-04-25T06:53:58;93522.47;;;5.37;62.68
39223;BME280;24936;46.328;11.026;2023-04-25T06:56:24;93515.50;;;5.38;60.95
39223;BME280;24936;46.328;11.026;2023-04-25T06:58:49;93515.25;;;5.50;61.48
39223;BME280;24936;46.328;11.026;2023-04-25T07:01:15;93506.41;;;5.82;59.26
39223;BME280;24936;46.328;11.026;2023-04-25T07:03:41;93512.34;;;5.85;61.14
39223;BME280;24936;46.328;11.026;2023-04-25T07:06:06;93500.69;;;5.89;60.90
39223;BME280;24936;46.328;11.026;2023-04-25T07:08:32;93508.06;;;5.84;60.62
39223;BME280;24936;46.328;11.026;2023-04-25T07:10:57;93500.38;;;5.82;59.58
39223;BME280;24936;46.328;11.026;2023-04-25T07:13:23;93499.28;;;5.85;61.91
39223;BME280;24936;46.328;11.026;2023-04-25T07:15:48;93499.63;;;6.01;61.92
39223;BME280;24936;46.328;11.026;2023-04-25T07:18:14;93501.00;;;6.25;63.02
39223;BME280;24936;46.328;11.026;2023-04-25T07:20:40;93492.47;;;6.42;62.58
39223;BME280;24936;46.328;11.026;2023-04-25T07:23:06;93496.06;;;6.51;61.53
39223;BME280;24936;46.328;11.026;2023-04-25T07:25:31;93501.03;;;6.54;62.72
39223;BME280;24936;46.328;11.026;2023-04-25T07:27:57;93491.66;;;6.62;62.96
39223;BME280;24936;46.328;11.026;2023-04-25T07:30:22;93500.72;;;6.67;62.65
39223;BME280;24936;46.328;11.026;2023-04-25T07:32:49;93503.34;;;6.57;62.20
39223;BME280;24936;46.328;11.026;2023-04-25T07:35:15;93495.38;;;6.59;63.13
39223;BME280;24936;46.328;11.026;2023-04-25T07:37:41;93499.34;;;6.63;63.44
39223;BME280;24936;46.328;11.026;2023-04-25T07:40:07;93499.22;;;6.75;62.55
39223;BME280;24936;46.328;11.026;2023-04-25T07:42:34;93490.38;;;6.76;65.80
39223;BME280;24936;46.328;11.026;2023-04-25T07:45:00;93489.81;;;6.82;63.14
39223;BME280;24936;46.328;11.026;2023-04-25T07:47:26;93493.19;;;7.12;66.06
39223;BME280;24936;46.328;11.026;2023-04-25T07:49:51;93489.53;;;7.32;61.39
39223;BME280;24936;46.328;11.026;2023-04-25T07:52:17;93491.59;;;7.67;61.38
39223;BME280;24936;46.328;11.026;2023-04-25T07:54:42;93480.13;;;7.95;57.93
39223;BME280;24936;46.328;11.026;2023-04-25T07:57:08;93481.94;;;8.13;58.53
39223;BME280;24936;46.328;11.026;2023-04-25T07:59:33;93477.00;;;8.46;59.53
39223;BME280;24936;46.328;11.026;2023-04-25T08:02:00;93482.47;;;8.35;59.38
39223;BME280;24936;46.328;11.026;2023-04-25T08:04:25;93488.16;;;8.12;60.63
39223;BME280;24936;46.328;11.026;2023-04-25T08:06:51;93479.06;;;7.88;61.09
39223;BME280;24936;46.328;11.026;2023-04-25T08:09:19;93478.94;;;8.08;62.32
39223;BME280;24936;46.328;11.026;2023-04-25T08:11:45;93474.00;;;8.41;61.75
39223;BME280;24936;46.328;11.026;2023-04-25T08:14:12;93479.50;;;8.66;60.26
39223;BME280;24936;46.328;11.026;2023-04-25T08:16:37;93478.81;;;8.64;61.28
39223;BME280;24936;46.328;11.026;2023-04-25T08:19:03;93480.44;;;8.83;59.27
39223;BME280;24936;46.328;11.026;2023-04-25T08:21:28;93478.84;;;8.90;56.96
39223;BME280;24936;46.328;11.026;2023-04-25T08:23:54;93467.09;;;9.29;59.44
39223;BME280;24936;46.328;11.026;2023-04-25T08:26:19;93468.63;;;9.83;55.63
39223;BME280;24936;46.328;11.026;2023-04-25T08:28:46;93462.84;;;11.05;53.25
39223;BME280;24936;46.328;11.026;2023-04-25T08:31:11;93464.13;;;11.34;52.47
39223;BME280;24936;46.328;11.026;2023-04-25T08:33:37;93452.13;;;11.14;52.24
39223;BME280;24936;46.328;11.026;2023-04-25T08:36:02;93455.56;;;11.31;52.42
39223;BME280;24936;46.328;11.026;2023-04-25T08:38:28;93451.44;;;11.77;52.85
39223;BME280;24936;46.328;11.026;2023-04-25T08:40:54;93455.63;;;12.58;51.11
39223;BME280;24936;46.328;11.026;2023-04-25T08:43:20;93461.63;;;12.90;49.92
39223;BME280;24936;46.328;11.026;2023-04-25T08:45:47;93450.84;;;13.29;45.64
39223;BME280;24936;46.328;11.026;2023-04-25T08:48:14;93447.69;;;14.16;44.78
39223;BME280;24936;46.328;11.026;2023-04-25T08:50:52;93439.16;;;15.22;41.65
39223;BME280;24936;46.328;11.026;2023-04-25T08:53:29;93446.75;;;16.09;41.95
39223;BME280;24936;46.328;11.026;2023-04-25T08:55:56;93439.41;;;16.04;42.71
39223;BME280;24936;46.328;11.026;2023-04-25T08:58:23;93435.06;;;16.59;41.69
39223;BME280;24936;46.328;11.026;2023-04-25T09:00:48;93435.09;;;16.79;39.82
39223;BME280;24936;46.328;11.026;2023-04-25T09:03:15;93434.72;;;17.36;38.81
39223;BME280;24936;46.328;11.026;2023-04-25T09:05:41;93427.09;;;17.53;39.38
39223;BME280;24936;46.328;11.026;2023-04-25T09:08:07;93429.19;;;17.10;37.60
39223;BME280;24936;46.328;11.026;2023-04-25T09:10:32;93432.78;;;16.49;38.21
39223;BME280;24936;46.328;11.026;2023-04-25T09:13:09;93432.44;;;16.86;40.40
39223;BME280;24936;46.328;11.026;2023-04-25T09:15:49;93425.94;;;17.08;37.77
39223;BME280;24936;46.328;11.026;2023-04-25T09:18:26;93424.28;;;18.13;38.53
39223;BME280;24936;46.328;11.026;2023-04-25T09:20:53;93421.09;;;18.37;36.17
39223;BME280;24936;46.328;11.026;2023-04-25T09:23:20;93424.16;;;18.72;35.86
39223;BME280;24936;46.328;11.026;2023-04-25T09:25:51;93430.19;;;18.93;37.22
39223;BME280;24936;46.328;11.026;2023-04-25T09:28:23;93415.31;;;19.10;33.72
39223;BME280;24936;46.328;11.026;2023-04-25T09:30:54;93423.44;;;18.90;32.21
39223;BME280;24936;46.328;11.026;2023-04-25T09:33:27;93416.03;;;18.60;32.18
39223;BME280;24936;46.328;11.026;2023-04-25T09:35:53;93419.59;;;17.16;34.82
39223;BME280;24936;46.328;11.026;2023-04-25T09:38:21;93414.25;;;15.17;37.24
39223;BME280;24936;46.328;11.026;2023-04-25T09:40:47;93420.91;;;14.41;43.62
39223;BME280;24936;46.328;11.026;2023-04-25T09:43:21;93424.34;;;13.83;45.27
39223;BME280;24936;46.328;11.026;2023-04-25T09:45:47;93428.28;;;13.42;47.20
39223;BME280;24936;46.328;11.026;2023-04-25T09:48:20;93422.84;;;13.05;47.50
39223;BME280;24936;46.328;11.026;2023-04-25T09:51:13;93424.50;;;13.06;46.58
39223;BME280;24936;46.328;11.026;2023-04-25T09:53:43;93425.53;;;12.82;51.09
39223;BME280;24936;46.328;11.026;2023-04-25T09:56:11;93414.72;;;12.92;48.76
39223;BME280;24936;46.328;11.026;2023-04-25T09:58:38;93419.41;;;13.20;48.08
39223;BME280;24936;46.328;11.026;2023-04-25T10:01:06;93410.31;;;13.67;49.75
39223;BME280;24936;46.328;11.026;2023-04-25T10:03:35;93406.72;;;14.27;43.57
39223;BME280;24936;46.328;11.026;2023-04-25T10:06:02;93405.75;;;13.76;48.54
39223;BME280;24936;46.328;11.026;2023-04-25T10:08:37;93409.19;;;13.16;48.92
39223;BME280;24936;46.328;11.026;2023-04-25T10:11:07;93411.94;;;13.08;49.15
39223;BME280;24936;46.328;11.026;2023-04-25T10:13:34;93405.38;;;13.04;49.16
39223;BME280;24936;46.328;11.026;2023-04-25T10:16:04;93400.00;;;13.12;47.46
39223;BME280;24936;46.328;11.026;2023-04-25T10:18:31;93399.66;;;13.15;47.95
39223;BME280;24936;46.328;11.026;2023-04-25T10:20:59;93390.13;;;13.81;45.58
39223;BME280;24936;46.328;11.026;2023-04-25T10:23:25;93397.59;;;14.73;45.06
39223;BME280;24936;46.328;11.026;2023-04-25T10:25:52;93390.66;;;14.72;40.80
39223;BME280;24936;46.328;11.026;2023-04-25T10:28:18;93400.34;;;14.64;43.54
39223;BME280;24936;46.328;11.026;2023-04-25T10:33:31;93398.00;;;14.11;47.18
39223;BME280;24936;46.328;11.026;2023-04-25T10:35:58;93389.72;;;15.43;45.01
39223;BME280;24936;46.328;11.026;2023-04-25T10:38:25;93393.97;;;16.41;40.56
39223;BME280;24936;46.328;11.026;2023-04-25T10:41:18;93402.94;;;15.36;39.92
39223;BME280;24936;46.328;11.026;2023-04-25T10:43:48;93406.47;;;15.15;41.53
39223;BME280;24936;46.328;11.026;2023-04-25T10:46:19;93396.06;;;14.85;43.53
39223;BME280;24936;46.328;11.026;2023-04-25T10:48:46;93403.88;;;14.93;41.58
39223;BME280;24936;46.328;11.026;2023-04-25T10:53:44;93403.72;;;13.93;43.68
39223;BME280;24936;46.328;11.026;2023-04-25T10:56:20;93391.81;;;15.19;41.05
39223;BME280;24936;46.328;11.026;2023-04-25T10:58:47;93374.63;;;18.32;37.37
39223;BME280;24936;46.328;11.026;2023-04-25T11:01:20;93372.78;;;19.41;32.32
39223;BME280;24936;46.328;11.026;2023-04-25T11:03:46;93380.28;;;20.68;31.97
39223;BME280;24936;46.328;11.026;2023-04-25T11:06:50;93367.66;;;21.94;34.47
39223;BME280;24936;46.328;11.026;2023-04-25T11:09:23;93368.34;;;19.72;31.95
39223;BME280;24936;46.328;11.026;2023-04-25T11:11:56;93366.63;;;18.00;33.53
39223;BME280;24936;46.328;11.026;2023-04-25T11:14:22;93367.56;;;17.54;35.72
39223;BME280;24936;46.328;11.026;2023-04-25T11:16:58;93351.97;;;17.64;35.12
39223;BME280;24936;46.328;11.026;2023-04-25T11:19:25;93358.22;;;18.93;34.80
39223;BME280;24936;46.328;11.026;2023-04-25T11:21:55;93349.78;;;18.07;34.97
39223;BME280;24936;46.328;11.026;2023-04-25T11:24:34;93353.16;;;16.76;34.60
39223;BME280;24936;46.328;11.026;2023-04-25T11:27:04;93359.84;;;15.63;36.64
39223;BME280;24936;46.328;11.026;2023-04-25T11:29:31;93344.97;;;14.91;39.79
39223;BME280;24936;46.328;11.026;2023-04-25T11:31:58;93349.22;;;14.86;37.70
39223;BME280;24936;46.328;11.026;2023-04-25T11:34:25;93345.72;;;14.57;42.46
39223;BME280;24936;46.328;11.026;2023-04-25T11:36:51;93341.38;;;14.49;39.19
39223;BME280;24936;46.328;11.026;2023-04-25T11:39:18;93343.75;;;14.44;39.92
39223;BME280;24936;46.328;11.026;2023-04-25T11:41:44;93345.53;;;14.36;42.61
39223;BME280;24936;46.328;11.026;2023-04-25T11:44:10;93345.81;;;14.42;39.47
39223;BME280;24936;46.328;11.026;2023-04-25T11:46:35;93346.81;;;14.41;39.25
39223;BME280;24936;46.328;11.026;2023-04-25T11:49:01;93349.38;;;14.56;40.85
39223;BME280;24936;46.328;11.026;2023-04-25T11:51:27;93350.78;;;14.58;40.15
39223;BME280;24936;46.328;11.026;2023-04-25T11:53:52;93339.47;;;15.77;36.81
39223;BME280;24936;46.328;11.026;2023-04-25T11:56:18;93347.94;;;15.94;39.34
39223;BME280;24936;46.328;11.026;2023-04-25T12:01:31;93331.75;;;18.09;34.00
39223;BME280;24936;46.328;11.026;2023-04-25T12:03:58;93332.25;;;18.31;33.40
39223;BME280;24936;46.328;11.026;2023-04-25T12:06:30;93311.13;;;18.87;33.23
39223;BME280;24936;46.328;11.026;2023-04-25T12:09:04;93322.81;;;20.04;31.94
39223;BME280;24936;46.328;11.026;2023-04-25T12:11:30;93309.91;;;19.08;28.83
39223;BME280;24936;46.328;11.026;2023-04-25T12:14:02;93313.50;;;17.73;32.04
39223;BME280;24936;46.328;11.026;2023-04-25T12:16:29;93318.13;;;17.85;30.75
39223;BME280;24936;46.328;11.026;2023-04-25T12:18:55;93320.31;;;19.35;30.25
39223;BME280;24936;46.328;11.026;2023-04-25T12:21:21;93313.34;;;19.90;29.91
39223;BME280;24936;46.328;11.026;2023-04-25T12:23:47;93310.13;;;20.30;28.47
39223;BME280;24936;46.328;11.026;2023-04-25T12:26:12;93311.72;;;20.61;30.01
39223;BME280;24936;46.328;11.026;2023-04-25T12:28:38;93302.00;;;20.91;26.49
39223;BME280;24936;46.328;11.026;2023-04-25T12:31:05;93308.78;;;20.39;30.14
39223;BME280;24936;46.328;11.026;2023-04-25T12:33:35;93306.59;;;20.06;27.21
39223;BME280;24936;46.328;11.026;2023-04-25T12:36:03;93318.22;;;19.00;31.52
39223;BME280;24936;46.328;11.026;2023-04-25T12:38:45;93330.13;;;17.55;32.80
39223;BME280;24936;46.328;11.026;2023-04-25T12:41:11;93342.69;;;16.20;33.69
39223;BME280;24936;46.328;11.026;2023-04-25T12:43:36;93341.94;;;15.78;39.88
39223;BME280;24936;46.328;11.026;2023-04-25T12:46:02;93351.22;;;14.83;36.16
39223;BME280;24936;46.328;11.026;2023-04-25T12:48:27;93352.91;;;14.41;39.93
39223;BME280;24936;46.328;11.026;2023-04-25T12:50:53;93349.41;;;13.75;41.79
39223;BME280;24936;46.328;11.026;2023-04-25T12:53:20;93363.59;;;13.53;39.26
39223;BME280;24936;46.328;11.026;2023-04-25T12:55:46;93367.44;;;13.50;39.13
39223;BME280;24936;46.328;11.026;2023-04-25T12:58:12;93376.59;;;13.39;38.69
39223;BME280;24936;46.328;11.026;2023-04-25T13:00:38;93374.63;;;13.41;41.83
39223;BME280;24936;46.328;11.026;2023-04-25T13:03:04;93381.53;;;13.12;42.17
39223;BME280;24936;46.328;11.026;2023-04-25T13:05:30;93372.03;;;13.03;42.29
39223;BME280;24936;46.328;11.026;2023-04-25T13:07:55;93386.97;;;12.96;42.24